createdAt,value
2023-07-03T00:01:57.009Z,79.16
2023-07-03T00:05:11.220Z,79.58
2023-07-03T00:08:23.659Z,79.57
2023-07-03T00:11:39.536Z,79.23
2023-07-03T00:14:52.139Z,79.19
2023-07-03T00:18:05.034Z,79.42
2023-07-03T00:21:17.688Z,79.96
2023-07-03T00:24:31.441Z,80.13
2023-07-03T00:27:44.231Z,79.77
2023-07-03T00:30:57.113Z,80.67
2023-07-03T00:34:09.561Z,81.67
2023-07-03T00:37:24.932Z,81.71
2023-07-03T00:40:37.287Z,82.39
2023-07-03T00:43:49.926Z,82.24
2023-07-03T00:47:04.684Z,82.63
2023-07-03T00:50:17.400Z,83.25
2023-07-03T00:53:30.766Z,83.83
2023-07-03T00:56:43.449Z,83.66
2023-07-03T00:59:55.872Z,83.26
2023-07-03T01:03:14.519Z,84.87
2023-07-03T01:06:29.554Z,85.56
2023-07-03T01:09:57.087Z,85.73
2023-07-03T01:13:14.806Z,86.34
2023-07-03T01:16:27.729Z,87.11
2023-07-03T01:19:42.961Z,87.16
2023-07-03T01:23:08.870Z,86.76
2023-07-03T01:26:21.296Z,86.40
2023-07-03T01:29:34.014Z,86.82
2023-07-03T01:32:48.033Z,86.69
2023-07-03T01:36:00.882Z,87.04
2023-07-03T01:39:14.933Z,86.78
2023-07-03T01:42:28.046Z,86.86
2023-07-03T01:45:45.073Z,87.04
2023-07-03T01:48:57.820Z,87.70
2023-07-03T01:52:18.316Z,88.35
2023-07-03T01:55:36.860Z,88.41
2023-07-03T01:58:50.804Z,88.49
2023-07-03T02:02:07.684Z,89.05
2023-07-03T02:05:24.511Z,89.83
2023-07-03T02:08:36.849Z,90.37
2023-07-03T02:11:49.965Z,90.50
2023-07-03T02:15:06.096Z,90.69
2023-07-03T02:18:22.018Z,90.68
2023-07-03T02:21:34.464Z,91.23
2023-07-03T02:24:48.102Z,92.49
2023-07-03T02:28:00.759Z,92.97
2023-07-03T02:31:13.550Z,93.42
2023-07-03T02:34:26.234Z,93.67
2023-07-03T02:37:38.678Z,93.43
2023-07-03T02:40:51.425Z,93.71
2023-07-03T02:44:04.041Z,94.01
2023-07-03T02:47:16.893Z,93.68
2023-07-03T02:50:29.320Z,92.93
2023-07-03T02:53:43.099Z,92.78
2023-07-03T02:56:55.814Z,93.81
2023-07-03T03:00:08.844Z,94.01
2023-07-03T03:03:21.779Z,94.15
2023-07-03T03:06:34.487Z,94.10
2023-07-03T03:09:47.327Z,93.91
2023-07-03T03:13:00.250Z,93.52
2023-07-03T03:16:12.715Z,93.56
2023-07-03T03:19:25.541Z,93.84
2023-07-03T03:22:38.032Z,94.28
2023-07-03T03:25:51.017Z,94.27
2023-07-03T03:29:03.889Z,92.46
2023-07-03T03:32:16.904Z,93.34
2023-07-03T03:35:29.484Z,92.62
2023-07-03T03:38:42.209Z,91.20
2023-07-03T03:41:54.642Z,91.99
2023-07-03T03:45:07.817Z,93.08
2023-07-03T03:48:20.764Z,92.83
2023-07-03T03:51:35.216Z,91.18
2023-07-03T03:54:48.519Z,90.79
2023-07-03T03:58:01.226Z,90.44
2023-07-03T04:01:14.437Z,89.82
2023-07-03T04:04:27.309Z,89.35
2023-07-03T04:07:40.268Z,89.42
2023-07-03T04:10:53.056Z,89.67
2023-07-03T04:14:05.437Z,88.92
2023-07-03T04:17:18.099Z,89.00
2023-07-03T04:20:30.922Z,89.24
2023-07-03T04:23:43.916Z,89.72
2023-07-03T04:26:58.407Z,88.91
2023-07-03T04:30:11.644Z,88.66
2023-07-03T04:33:24.106Z,88.74
2023-07-03T04:36:36.807Z,87.79
2023-07-03T04:39:49.215Z,88.30
2023-07-03T04:43:02.116Z,87.43
2023-07-03T04:46:14.595Z,87.42
2023-07-03T04:49:27.586Z,86.34
2023-07-03T04:52:40.275Z,85.50
2023-07-03T04:55:53.174Z,84.88
2023-07-03T04:59:05.817Z,84.42
2023-07-03T05:02:19.451Z,83.77
2023-07-03T05:05:32.107Z,84.17
2023-07-03T05:08:44.791Z,82.58
2023-07-03T05:11:57.124Z,82.98
2023-07-03T05:15:11.340Z,81.25
2023-07-03T05:18:23.772Z,81.54
2023-07-03T05:21:36.392Z,79.79
2023-07-03T05:24:49.279Z,79.25
2023-07-03T05:28:02.014Z,78.33
2023-07-03T05:31:14.461Z,77.23
2023-07-03T05:34:28.048Z,76.64
2023-07-03T05:37:40.415Z,74.52
2023-07-03T05:40:53.102Z,75.02
2023-07-03T05:44:05.611Z,74.36
2023-07-03T05:47:18.479Z,72.64
2023-07-03T05:50:31.436Z,72.49
2023-07-03T05:53:44.195Z,69.99
2023-07-03T05:57:01.001Z,71.61
2023-07-03T06:00:14.677Z,70.11
2023-07-03T06:03:33.244Z,69.74
2023-07-03T06:06:45.807Z,68.35
2023-07-03T06:09:58.635Z,65.34
2023-07-03T06:13:11.057Z,64.98
2023-07-03T06:16:23.754Z,64.94
2023-07-03T06:19:36.197Z,65.29
2023-07-03T06:22:48.978Z,64.42
2023-07-03T06:26:01.368Z,63.68
2023-07-03T06:29:15.757Z,61.59
2023-07-03T06:32:28.323Z,60.16
2023-07-03T06:35:41.018Z,60.82
2023-07-03T06:38:58.059Z,58.14
2023-07-03T06:42:11.322Z,58.21
2023-07-03T06:45:26.760Z,61.24
2023-07-03T06:48:39.429Z,61.14
2023-07-03T06:51:54.907Z,62.98
2023-07-03T06:59:14.615Z,60.69
2023-07-03T07:02:27.339Z,59.94
2023-07-03T07:05:39.921Z,59.22
2023-07-03T07:08:56.012Z,58.67
2023-07-03T07:12:08.775Z,58.22
2023-07-03T07:15:21.477Z,59.06
2023-07-03T07:18:33.957Z,57.50
2023-07-03T07:21:46.658Z,53.38
2023-07-03T07:24:59.146Z,54.34
2023-07-03T07:28:12.196Z,53.18
2023-07-03T07:31:25.605Z,54.64
2023-07-03T07:34:38.361Z,52.45
2023-07-03T07:37:50.789Z,53.69
2023-07-03T07:41:03.735Z,51.59
2023-07-03T07:44:16.174Z,42.60
2023-07-03T07:47:29.997Z,41.60
2023-07-03T07:50:42.443Z,43.93
2023-07-03T07:53:55.253Z,39.48
2023-07-03T07:57:08.233Z,38.70
2023-07-03T08:00:21.387Z,37.58
2023-07-03T08:03:34.213Z,36.62
2023-07-03T08:06:46.776Z,39.03
2023-07-03T08:10:00.210Z,37.30
2023-07-03T08:13:12.577Z,36.16
2023-07-03T08:16:26.834Z,35.65
2023-07-03T08:19:39.322Z,36.15
2023-07-03T08:22:51.977Z,34.98
2023-07-03T08:26:04.515Z,34.85
2023-07-03T08:29:17.238Z,35.38
2023-07-03T08:32:29.700Z,34.03
2023-07-03T08:38:57.848Z,33.82
2023-07-03T08:42:22.409Z,33.25
2023-07-03T08:45:36.619Z,34.15
2023-07-03T08:48:50.502Z,33.72
2023-07-03T08:52:06.907Z,32.85
2023-07-03T08:55:23.116Z,32.81
2023-07-03T08:58:35.509Z,32.65
2023-07-03T09:01:57.869Z,32.13
2023-07-03T09:05:54.741Z,31.49
2023-07-03T09:09:12.730Z,31.39
2023-07-03T09:12:37.257Z,32.08
2023-07-03T09:15:55.138Z,32.42
2023-07-03T09:19:13.391Z,30.97
2023-07-03T09:22:53.227Z,31.80
2023-07-03T09:26:08.974Z,30.55
2023-07-03T09:29:21.717Z,32.23
2023-07-03T09:32:34.367Z,30.18
2023-07-03T09:35:48.899Z,30.66
2023-07-03T09:39:13.143Z,30.80
2023-07-03T09:42:27.021Z,30.80
2023-07-03T09:45:39.478Z,30.27
2023-07-03T09:48:52.612Z,30.43
2023-07-03T09:52:06.854Z,30.79
2023-07-03T09:55:21.162Z,31.11
2023-07-03T09:58:34.223Z,31.90
2023-07-03T10:08:25.219Z,31.85
2023-07-03T10:12:00.445Z,31.66
2023-07-03T10:15:19.405Z,30.49
2023-07-03T10:18:36.635Z,29.54
2023-07-03T10:21:49.066Z,29.74
2023-07-03T10:25:02.944Z,30.00
2023-07-03T10:28:24.876Z,31.29
2023-07-03T10:31:41.029Z,31.39
2023-07-03T10:35:07.968Z,32.64
2023-07-03T10:38:35.312Z,31.40
2023-07-03T10:41:55.254Z,31.51
2023-07-03T10:45:14.743Z,30.30
2023-07-03T10:48:29.561Z,30.77
2023-07-03T10:51:55.757Z,29.95
2023-07-03T10:55:45.696Z,30.41
2023-07-03T10:59:10.914Z,30.39
2023-07-03T11:02:45.942Z,29.71
2023-07-03T11:06:11.914Z,28.73
2023-07-03T11:09:58.459Z,28.10
2023-07-03T11:13:19.902Z,28.69
2023-07-03T11:16:44.388Z,29.33
2023-07-03T11:20:17.790Z,29.21
2023-07-03T11:23:38.133Z,28.49
2023-07-03T11:30:09.768Z,29.20
2023-07-03T11:33:22.995Z,28.60
2023-07-03T11:36:49.854Z,28.14
2023-07-03T11:40:27.675Z,29.11
2023-07-03T11:43:43.971Z,28.55
2023-07-03T11:46:59.111Z,27.58
2023-07-03T11:50:11.485Z,27.30
2023-07-03T11:53:50.213Z,27.40
2023-07-03T11:57:29.549Z,27.19
2023-07-03T12:00:42.768Z,27.46
2023-07-03T12:03:57.480Z,29.29
2023-07-03T12:07:10.758Z,29.43
2023-07-03T12:10:29.597Z,29.83
2023-07-03T12:13:42.547Z,29.98
2023-07-03T12:16:55.298Z,28.41
2023-07-03T12:20:35.921Z,28.36
2023-07-03T12:23:49.674Z,29.91
2023-07-03T12:27:04.950Z,28.61
2023-07-03T12:30:22.704Z,27.58
2023-07-03T12:33:35.118Z,28.24
2023-07-03T12:36:54.072Z,28.96
2023-07-03T12:40:11.325Z,28.37
2023-07-03T12:43:23.991Z,28.81
2023-07-03T12:46:38.571Z,29.42
2023-07-03T12:50:01.051Z,27.85
2023-07-03T12:53:14.100Z,28.41
2023-07-03T12:56:30.409Z,29.65
2023-07-03T12:59:53.148Z,28.21
2023-07-03T13:03:07.510Z,27.99
2023-07-03T13:06:29.476Z,28.86
2023-07-03T13:09:44.178Z,29.07
2023-07-03T13:13:10.011Z,30.42
2023-07-03T13:16:22.853Z,32.55
2023-07-03T13:19:36.405Z,30.90
2023-07-03T13:22:50.619Z,33.35
2023-07-03T13:26:08.710Z,33.70
2023-07-03T13:29:30.638Z,34.41
2023-07-03T13:33:02.046Z,34.17
2023-07-03T13:36:23.312Z,35.29
2023-07-03T13:39:36.887Z,35.89
2023-07-03T13:42:57.322Z,35.52
2023-07-03T13:46:09.788Z,35.08
2023-07-03T13:49:22.484Z,34.38
2023-07-03T13:52:37.644Z,32.81
2023-07-03T13:55:50.976Z,31.91
2023-07-03T13:59:05.221Z,32.73
2023-07-03T14:02:17.952Z,33.02
2023-07-03T14:05:30.704Z,33.65
2023-07-03T14:08:43.149Z,33.31
2023-07-03T14:11:55.828Z,33.39
2023-07-03T14:15:16.757Z,32.95
2023-07-03T14:18:29.472Z,31.56
2023-07-03T14:21:41.872Z,31.40
2023-07-03T14:24:54.711Z,30.69
2023-07-03T14:28:07.073Z,30.03
2023-07-03T14:31:19.790Z,30.49
2023-07-03T14:34:32.798Z,32.17
2023-07-03T14:37:45.487Z,30.45
2023-07-03T14:40:58.517Z,31.64
2023-07-03T14:44:11.214Z,31.55
2023-07-03T14:47:23.700Z,31.39
2023-07-03T14:50:36.482Z,30.72
2023-07-03T14:53:48.819Z,31.26
2023-07-03T14:57:01.591Z,31.68
2023-07-03T15:00:14.658Z,30.47
2023-07-03T15:03:27.417Z,32.55
2023-07-03T15:06:42.951Z,32.09
2023-07-03T15:09:55.620Z,32.52
2023-07-03T15:13:08.868Z,31.76
2023-07-03T15:16:29.614Z,32.54
2023-07-03T15:19:42.032Z,32.93
2023-07-03T15:22:54.732Z,31.30
2023-07-03T15:26:07.388Z,30.94
2023-07-03T15:29:20.037Z,31.79
2023-07-03T15:32:32.447Z,32.32
2023-07-03T15:35:55.318Z,33.15
2023-07-03T15:39:07.793Z,32.77
2023-07-03T15:42:21.217Z,31.09
2023-07-03T15:45:33.596Z,31.05
2023-07-03T15:48:47.594Z,29.71
2023-07-03T15:51:59.969Z,28.06
2023-07-03T15:55:12.607Z,28.05
2023-07-03T15:58:27.008Z,28.27
2023-07-03T16:01:39.807Z,29.70
2023-07-03T16:04:52.617Z,30.68
2023-07-03T16:08:05.032Z,30.59
2023-07-03T16:11:19.468Z,29.15
2023-07-03T16:14:31.885Z,30.31
2023-07-03T16:17:44.636Z,31.67
2023-07-03T16:20:57.457Z,30.46
2023-07-03T16:24:10.109Z,32.10
2023-07-03T16:27:22.582Z,33.17
2023-07-03T16:30:35.331Z,32.19
2023-07-03T16:33:49.336Z,31.75
2023-07-03T16:37:02.073Z,32.01
2023-07-03T16:40:14.742Z,32.41
2023-07-03T16:43:34.195Z,32.65
2023-07-03T16:46:46.653Z,34.27
2023-07-03T16:49:59.401Z,33.61
2023-07-03T16:53:11.793Z,34.25
2023-07-03T16:56:26.361Z,34.77
2023-07-03T16:59:38.839Z,35.10
2023-07-03T17:02:52.173Z,35.27
2023-07-03T17:06:06.833Z,36.82
2023-07-03T17:09:20.306Z,38.88
2023-07-03T17:12:32.734Z,39.31
2023-07-03T17:15:45.412Z,39.87
2023-07-03T17:18:57.898Z,41.42
2023-07-03T17:22:10.580Z,42.18
2023-07-03T17:25:23.110Z,42.45
2023-07-03T17:28:35.836Z,43.21
2023-07-03T17:31:48.214Z,43.32
2023-07-03T17:35:01.126Z,44.33
2023-07-03T17:38:16.921Z,44.30
2023-07-03T17:41:30.926Z,45.35
2023-07-03T17:44:43.308Z,45.72
2023-07-03T17:47:56.122Z,46.09
2023-07-03T17:51:08.567Z,46.60
2023-07-03T17:54:21.216Z,46.65
2023-07-03T17:57:33.597Z,46.95
2023-07-03T18:00:46.269Z,48.72
2023-07-03T18:04:01.592Z,49.75
2023-07-03T18:07:16.115Z,50.93
2023-07-03T18:10:33.042Z,51.67
2023-07-03T18:13:45.734Z,52.82
2023-07-03T18:16:58.472Z,53.24
2023-07-03T18:20:11.511Z,54.29
2023-07-03T18:23:24.295Z,54.94
2023-07-03T18:26:36.969Z,55.07
2023-07-03T18:29:49.620Z,55.51
2023-07-03T18:33:02.096Z,55.31
2023-07-03T18:36:14.832Z,54.99
2023-07-03T18:39:27.382Z,56.21
2023-07-03T18:42:40.070Z,56.01
2023-07-03T18:45:52.706Z,55.91
2023-07-03T18:49:05.688Z,55.93
2023-07-03T18:52:18.117Z,56.38
2023-07-03T18:55:30.838Z,55.88
2023-07-03T18:58:46.369Z,55.92
2023-07-03T19:01:59.051Z,56.75
2023-07-03T19:05:11.450Z,56.67
2023-07-03T19:08:24.156Z,56.86
2023-07-03T19:11:38.724Z,57.81
2023-07-03T19:14:51.924Z,58.47
2023-07-03T19:18:04.433Z,58.69
2023-07-03T19:21:17.399Z,58.91
2023-07-03T19:24:29.893Z,57.90
2023-07-03T19:27:42.569Z,57.77
2023-07-03T19:30:56.018Z,58.36
2023-07-03T19:34:08.710Z,59.08
2023-07-03T19:37:21.146Z,60.05
2023-07-03T19:40:38.008Z,60.43
2023-07-03T19:43:50.288Z,61.43
2023-07-03T19:47:02.964Z,61.65
2023-07-03T19:50:15.894Z,62.41
2023-07-03T19:53:28.983Z,63.04
2023-07-03T19:56:41.356Z,62.98
2023-07-03T19:59:56.313Z,63.59
2023-07-03T20:03:11.421Z,64.12
2023-07-03T20:06:24.550Z,64.41
2023-07-03T20:09:37.486Z,64.78
2023-07-03T20:12:51.740Z,65.32
2023-07-03T20:16:04.522Z,65.97
2023-07-03T20:19:17.352Z,65.94
2023-07-03T20:22:30.456Z,65.29
2023-07-03T20:25:43.153Z,64.98
2023-07-03T20:28:55.610Z,67.34
2023-07-03T20:32:08.346Z,66.99
2023-07-03T20:35:20.801Z,68.40
2023-07-03T20:38:33.556Z,69.21
2023-07-03T20:41:45.905Z,69.98
2023-07-03T20:44:58.716Z,69.93
2023-07-03T20:48:11.142Z,70.64
2023-07-03T20:51:27.347Z,71.38
2023-07-03T20:54:44.524Z,72.11
2023-07-03T20:57:57.292Z,70.90
2023-07-03T21:01:13.930Z,70.83
2023-07-03T21:04:27.100Z,71.15
2023-07-03T21:07:39.771Z,72.14
2023-07-03T21:11:01.531Z,72.50
2023-07-03T21:14:14.144Z,72.87
2023-07-03T21:17:26.921Z,73.96
2023-07-03T21:20:39.264Z,75.26
2023-07-03T21:23:52.463Z,77.90
2023-07-03T21:27:05.214Z,81.06
2023-07-03T21:30:17.950Z,84.10
2023-07-03T21:33:31.319Z,83.79
2023-07-03T21:36:43.952Z,82.58
2023-07-03T21:39:56.264Z,83.49
2023-07-03T21:43:08.904Z,83.81
2023-07-03T21:46:22.337Z,84.72
2023-07-03T21:49:34.976Z,84.85
2023-07-03T21:52:47.403Z,84.88
2023-07-03T21:56:10.555Z,85.56
2023-07-03T21:59:22.940Z,83.62
2023-07-03T22:02:35.598Z,83.31
2023-07-03T22:05:48.297Z,82.43
2023-07-03T22:09:00.775Z,83.29
2023-07-03T22:12:13.442Z,84.10
2023-07-03T22:15:25.845Z,83.77
2023-07-03T23:34:37.937Z,86.27
2023-07-03T23:37:52.327Z,85.69
2023-07-03T23:41:09.496Z,82.71
2023-07-03T23:44:22.526Z,80.95
2023-07-03T23:47:34.957Z,80.38
2023-07-03T23:51:00.210Z,84.21
2023-07-03T23:54:12.720Z,85.58
2023-07-03T23:57:25.440Z,85.67
